Time;durP1;ratioP1;P1;durP2;ratioP2;P2;SDS_P1;SDS_P2;PMS_P1;PMS_P2;Temp;Humidity;BMP_temperature;BMP_pressure;BME280_temperature;BME280_humidity;BME280_pressure;Samples;Min_cycle;Max_cycle;Signal;HPM_P1;HPM_P2
2023/04/19 00:04:50;;;;;;;53.47;32.53;;;;;;;6.40;100.00;97436.53;10370037;28;20674;-66
2023/04/19 00:09:50;;;;;;;53.13;30.73;;;;;;;6.46;100.00;97426.59;10376480;28;20671;-66
2023/04/19 00:14:50;;;;;;;45.73;31.23;;;;;;;6.42;100.00;97426.81;10376540;28;20784;-66
2023/04/19 00:19:51;;;;;;;47.10;30.97;;;;;;;6.35;100.00;97416.97;10375977;28;20778;-66
2023/04/19 00:24:52;;;;;;;46.73;31.93;;;;;;;6.26;100.00;97410.66;10376031;28;20757;-65
2023/04/19 00:29:52;;;;;;;49.43;31.20;;;;;;;6.19;100.00;97399.06;10375660;28;20186;-66
2023/04/19 00:34:53;;;;;;;41.00;29.50;;;;;;;6.21;100.00;97394.56;10374587;28;20239;-65
2023/04/19 00:39:55;;;;;;;50.00;32.70;;;;;;;6.17;100.00;97390.53;10375550;28;20296;-65
2023/04/19 00:44:55;;;;;;;49.37;33.57;;;;;;;6.12;100.00;97384.84;10375156;28;20343;-66
2023/04/19 00:49:56;;;;;;;50.73;31.90;;;;;;;6.15;100.00;97387.22;10374139;28;20185;-66
2023/04/19 00:54:57;;;;;;;48.53;31.93;;;;;;;6.07;100.00;97378.19;10374521;28;20205;-66
2023/04/19 00:59:57;;;;;;;52.63;32.73;;;;;;;6.13;100.00;97384.72;10373260;28;20256;-66
2023/04/19 01:04:58;;;;;;;49.63;33.63;;;;;;;6.02;100.00;97377.72;10374055;28;20217;-65
2023/04/19 01:09:58;;;;;;;39.10;26.40;;;;;;;6.03;100.00;97366.38;10374279;28;20182;-65
2023/04/19 01:14:58;;;;;;;38.67;25.83;;;;;;;5.88;100.00;97355.28;10373949;28;20359;-65
2023/04/19 01:20:00;;;;;;;35.53;26.73;;;;;;;5.81;100.00;97345.44;10373136;28;20296;-66
2023/04/19 01:25:00;;;;;;;38.20;27.23;;;;;;;5.87;100.00;97339.78;10372260;28;20213;-67
2023/04/19 01:30:01;;;;;;;39.20;26.27;;;;;;;5.80;100.00;97335.97;10375647;28;20201;-67
2023/04/19 01:35:01;;;;;;;38.87;25.67;;;;;;;5.79;100.00;97326.50;10373036;28;20275;-66
2023/04/19 01:40:04;;;;;;;41.80;27.73;;;;;;;5.74;100.00;97323.41;10373180;28;20707;-66
2023/04/19 01:45:05;;;;;;;38.63;26.43;;;;;;;5.70;100.00;97315.81;10371198;28;20384;-66
2023/04/19 01:50:06;;;;;;;36.93;24.73;;;;;;;5.69;100.00;97316.75;10372931;28;20631;-65
2023/04/19 01:55:07;;;;;;;41.37;25.70;;;;;;;5.60;100.00;97316.59;10372488;28;20699;-66
2023/04/19 02:00:09;;;;;;;46.47;27.43;;;;;;;5.59;100.00;97313.19;10371296;28;20225;-66
2023/04/19 02:05:14;;;;;;;43.80;28.43;;;;;;;5.51;100.00;97313.75;10372344;28;20742;-66
2023/04/19 02:10:15;;;;;;;43.90;27.33;;;;;;;5.53;100.00;97318.81;10370447;28;20292;-66
2023/04/19 02:15:15;;;;;;;38.53;25.40;;;;;;;5.38;100.00;97320.75;10370399;28;20295;-66
2023/04/19 02:20:15;;;;;;;42.93;27.17;;;;;;;5.23;100.00;97308.84;10371294;28;20296;-66
2023/04/19 02:25:16;;;;;;;40.30;25.97;;;;;;;5.23;100.00;97306.25;10370355;28;20204;-65
2023/04/19 02:30:16;;;;;;;37.93;25.37;;;;;;;5.21;100.00;97303.75;10371126;28;20259;-65
2023/04/19 02:35:17;;;;;;;46.80;28.10;;;;;;;5.26;100.00;97293.03;10369801;28;20213;-66
2023/04/19 02:40:17;;;;;;;46.23;30.00;;;;;;;5.16;100.00;97282.44;10371436;28;20608;-65
2023/04/19 02:45:17;;;;;;;46.27;30.77;;;;;;;5.15;100.00;97279.03;10370600;28;20201;-65
2023/04/19 02:50:20;;;;;;;47.23;29.23;;;;;;;5.20;100.00;97280.47;10338493;28;20217;-66
2023/04/19 02:55:23;;;;;;;43.97;29.17;;;;;;;5.15;100.00;97273.84;10328622;28;20628;-66
2023/04/19 03:00:32;;;;;;;44.33;30.27;;;;;;;5.11;100.00;97271.56;10328666;28;20356;-66
2023/04/19 03:05:39;;;;;;;48.13;31.40;;;;;;;5.10;100.00;97262.09;10359653;28;20209;-65
2023/04/19 03:10:40;;;;;;;42.37;29.73;;;;;;;5.15;100.00;97258.25;10369801;28;20220;-66
2023/04/19 03:15:42;;;;;;;47.47;31.00;;;;;;;5.02;100.00;97267.03;10368017;28;20232;-65
2023/04/19 03:20:43;;;;;;;47.97;32.10;;;;;;;4.93;100.00;97261.56;10368353;28;20217;-65
2023/04/19 03:25:44;;;;;;;47.87;32.17;;;;;;;4.83;100.00;97253.56;10369611;28;20295;-65
2023/04/19 03:30:59;;;;;;;50.43;31.47;;;;;;;4.89;100.00;97252.31;10370152;28;20198;-65
2023/04/19 03:36:00;;;;;;;43.67;29.17;;;;;;;4.79;100.00;97244.34;10368693;28;20205;-65
2023/04/19 03:41:00;;;;;;;40.00;26.37;;;;;;;4.78;100.00;97239.25;10370950;28;20224;-65
2023/04/19 03:46:05;;;;;;;43.03;25.83;;;;;;;4.71;100.00;97233.66;10376080;28;20268;-65
2023/04/19 03:51:05;;;;;;;40.50;22.70;;;;;;;4.62;100.00;97224.78;10376392;28;20186;-65
2023/04/19 03:56:06;;;;;;;40.77;23.40;;;;;;;4.57;100.00;97203.47;10375729;28;20209;-65
2023/04/19 04:01:07;;;;;;;41.13;25.10;;;;;;;4.37;100.00;97204.84;10377028;28;20265;-65
2023/04/19 04:06:08;;;;;;;39.13;24.77;;;;;;;4.40;100.00;97209.84;10376490;28;20278;-65
2023/04/19 04:11:09;;;;;;;48.53;25.83;;;;;;;4.29;100.00;97209.75;10376138;28;20316;-65
2023/04/19 04:16:10;;;;;;;47.43;26.23;;;;;;;4.34;100.00;97222.41;10424315;23;20245;-66
2023/04/19 04:21:11;;;;;;;46.40;28.57;;;;;;;4.25;100.00;97216.06;10414910;28;20243;-65
2023/04/19 04:26:14;;;;;;;54.73;29.40;;;;;;;4.16;100.00;97224.47;10415813;28;20274;-65
2023/04/19 04:31:31;;;;;;;51.73;29.43;;;;;;;4.18;100.00;97227.78;10415486;28;20268;-65
2023/04/19 04:36:32;;;;;;;69.77;34.80;;;;;;;4.08;100.00;97227.59;10415121;28;20304;-65
2023/04/19 04:41:34;;;;;;;78.00;35.33;;;;;;;3.96;100.00;97237.00;10431443;28;20589;-66
2023/04/19 04:46:35;;;;;;;72.83;35.33;;;;;;;3.96;100.00;97237.00;10414845;28;20339;-65
2023/04/19 04:51:36;;;;;;;74.63;36.93;;;;;;;4.04;100.00;97245.13;10414259;28;20208;-66
2023/04/19 04:56:37;;;;;;;70.63;39.27;;;;;;;4.00;100.00;97254.03;10431721;28;20567;-65
2023/04/19 05:01:38;;;;;;;65.10;38.53;;;;;;;3.87;100.00;97246.22;10414099;28;20208;-65
2023/04/19 05:06:43;;;;;;;56.87;33.07;;;;;;;3.74;100.00;97245.38;10415159;28;20334;-65
2023/04/19 05:11:44;;;;;;;58.17;34.87;;;;;;;3.80;100.00;97244.13;10416316;28;20226;-64
2023/04/19 05:16:45;;;;;;;48.93;31.30;;;;;;;3.82;100.00;97242.28;10414733;28;20228;-66
2023/04/19 05:21:47;;;;;;;47.73;27.57;;;;;;;3.50;100.00;97234.88;10413286;28;20726;-65
2023/04/19 05:26:48;;;;;;;40.67;25.20;;;;;;;3.51;100.00;97221.81;10413131;28;20212;-64
2023/04/19 05:31:49;;;;;;;41.77;24.57;;;;;;;3.49;100.00;97218.50;10414198;28;20551;-62
2023/04/19 05:36:56;;;;;;;37.47;22.93;;;;;;;3.50;100.00;97194.25;10429550;28;20235;-64
2023/04/19 05:41:57;;;;;;;35.57;20.20;;;;;;;3.56;100.00;97191.25;10412496;28;20624;-63
2023/04/19 05:46:57;;;;;;;31.53;19.83;;;;;;;3.66;100.00;97190.63;10413670;28;20241;-65
2023/04/19 05:52:18;;;;;;;26.53;16.67;;;;;;;3.51;100.00;97180.38;10413416;28;20224;-63
2023/04/19 05:57:28;;;;;;;22.80;13.73;;;;;;;3.64;100.00;97180.38;10410467;28;20181;-64
2023/04/19 06:02:28;;;;;;;30.30;13.47;;;;;;;3.62;100.00;97165.88;10406311;28;20207;-65
2023/04/19 06:07:30;;;;;;;17.20;10.97;;;;;;;3.62;100.00;97145.16;10404928;28;20232;-64
2023/04/19 06:12:30;;;;;;;17.87;9.67;;;;;;;3.43;100.00;97132.59;10395939;28;20185;-65
2023/04/19 06:17:30;;;;;;;21.53;9.37;;;;;;;3.35;100.00;97122.72;10412342;28;20666;-64
2023/04/19 06:22:31;;;;;;;10.90;7.60;;;;;;;3.34;100.00;97115.91;10412601;28;20600;-65
2023/04/19 06:27:31;;;;;;;16.60;6.47;;;;;;;3.52;100.00;97098.31;10412208;28;20655;-64
2023/04/19 06:32:31;;;;;;;9.10;5.83;;;;;;;3.76;100.00;97098.41;10391082;28;20705;-64
2023/04/19 06:37:32;;;;;;;13.47;6.33;;;;;;;3.69;100.00;97091.97;10401443;28;20210;-65
2023/04/19 06:42:36;;;;;;;16.00;5.83;;;;;;;3.86;100.00;97086.50;10432539;28;20191;-63
2023/04/19 06:47:36;;;;;;;9.90;4.57;;;;;;;3.47;100.00;97064.13;10451561;28;20191;-65
2023/04/19 06:52:37;;;;;;;6.67;4.30;;;;;;;3.88;100.00;97047.50;10451024;28;20206;-65
2023/04/19 06:57:37;;;;;;;10.30;4.70;;;;;;;4.16;100.00;97033.44;10451046;28;20208;-65
2023/04/19 07:02:38;;;;;;;6.33;4.40;;;;;;;4.61;100.00;97036.28;10413839;28;20650;-65
2023/04/19 07:07:40;;;;;;;5.27;4.17;;;;;;;4.78;100.00;97011.69;10402656;28;20654;-65
2023/04/19 07:12:40;;;;;;;6.33;3.70;;;;;;;4.72;100.00;96985.38;10386439;28;20323;-65
2023/04/19 07:17:40;;;;;;;13.93;4.60;;;;;;;4.95;100.00;97005.25;10394542;28;20303;-65
2023/04/19 07:22:41;;;;;;;5.73;3.37;;;;;;;6.01;100.00;96993.72;10382134;28;20288;-66
2023/04/19 07:27:41;;;;;;;3.83;2.93;;;;;;;6.90;92.10;96930.22;10376694;28;20193;-65
2023/04/19 07:32:41;;;;;;;5.20;3.60;;;;;;;7.22;82.36;96890.22;10443495;28;20316;-65
2023/04/19 07:37:42;;;;;;;6.83;3.00;;;;;;;7.91;77.36;96846.88;10437282;28;20223;-64
2023/04/19 07:42:42;;;;;;;4.17;2.97;;;;;;;7.98;70.38;96769.72;10417169;28;20196;-63
2023/04/19 07:47:43;;;;;;;6.43;3.10;;;;;;;7.84;68.90;96782.22;10447888;28;20234;-64
2023/04/19 07:52:43;;;;;;;6.80;2.67;;;;;;;8.90;66.56;96769.09;10458550;28;20227;-64
2023/04/19 07:57:47;;;;;;;4.07;2.23;;;;;;;9.59;65.63;96772.13;10458110;28;20566;-64
2023/04/19 08:02:47;;;;;;;4.63;2.90;;;;;;;9.14;65.72;96778.16;10457684;28;20691;-64
2023/04/19 08:07:48;;;;;;;5.20;2.67;;;;;;;10.80;65.37;96812.69;10457939;28;20292;-63
2023/04/19 08:12:48;;;;;;;5.80;2.50;;;;;;;9.60;62.90;96752.84;10455387;28;20793;-64
2023/04/19 08:17:49;;;;;;;4.03;2.90;;;;;;;9.63;62.28;96744.72;10456075;28;20614;-63
2023/04/19 08:22:49;;;;;;;8.13;2.95;;;;;;;10.40;62.67;96766.91;10456569;28;20211;-64
2023/04/19 08:27:50;;;;;;;3.80;2.95;;;;;;;10.18;62.02;96766.41;10455575;28;20245;-64
2023/04/19 08:32:50;;;;;;;4.82;2.45;;;;;;;10.92;61.06;96747.69;10455453;28;20703;-64
2023/04/19 08:37:50;;;;;;;3.20;2.55;;;;;;;10.66;59.86;96723.19;10414134;28;20224;-65
2023/04/19 08:42:51;;;;;;;4.35;3.03;;;;;;;11.34;59.56;96726.69;10426623;28;20215;-64
2023/04/19 08:47:51;;;;;;;5.72;3.38;;;;;;;10.92;58.67;96708.38;10455625;28;20282;-65
2023/04/19 08:52:52;;;;;;;9.35;2.95;;;;;;;10.53;58.78;96681.72;10454555;28;20219;-65
2023/04/19 08:57:52;;;;;;;5.72;2.60;;;;;;;11.07;59.11;96707.63;10455399;28;20230;-64
2023/04/19 09:02:56;;;;;;;4.38;2.67;;;;;;;11.84;59.12;96724.94;10455333;28;20240;-63
2023/04/19 09:08:20;;;;;;;5.13;3.10;;;;;;;11.21;61.76;96758.63;10432756;28;20215;-63
2023/04/19 09:13:20;;;;;;;6.07;2.90;;;;;;;11.28;60.89;96737.00;10413613;28;20319;-63
2023/04/19 09:18:20;;;;;;;4.72;3.22;;;;;;;11.12;61.24;96753.50;10413805;28;20228;-65
2023/04/19 09:23:21;;;;;;;4.40;3.00;;;;;;;11.29;64.08;96806.84;10411605;28;20243;-61
2023/04/19 09:28:21;;;;;;;4.38;3.33;;;;;;;11.45;61.41;96748.34;10413628;28;20201;-65
2023/04/19 09:33:32;;;;;;;6.32;3.13;;;;;;;10.05;63.67;96756.34;10412324;28;20208;-64
2023/04/19 09:38:46;;;;;;;11.25;5.85;;;;;;;10.60;64.85;96794.53;10411454;28;20216;-65
2023/04/19 09:43:47;;;;;;;6.32;4.93;;;;;;;9.45;65.25;96770.84;10412292;28;20228;-63
2023/04/19 09:48:47;;;;;;;8.90;5.30;;;;;;;9.30;66.40;96792.44;10412646;28;20663;-64
2023/04/19 09:53:48;;;;;;;8.47;3.80;;;;;;;9.73;66.64;96788.28;10410724;28;20224;-64
2023/04/19 09:58:48;;;;;;;8.13;4.07;;;;;;;9.36;68.72;96820.59;10410987;28;20311;-64
2023/04/19 10:03:49;;;;;;;7.15;3.88;;;;;;;9.23;65.93;96751.19;10411693;28;20217;-64
2023/04/19 10:08:50;;;;;;;6.10;3.37;;;;;;;9.21;65.81;96762.75;10410521;28;20219;-65
2023/04/19 10:13:53;;;;;;;8.10;4.30;;;;;;;8.63;69.41;96805.63;10439270;22;20297;-66
2023/04/19 10:18:54;;;;;;;8.50;3.70;;;;;;;8.12;70.44;96805.81;10451330;28;20219;-66
2023/04/19 10:23:56;;;;;;;9.37;4.20;;;;;;;8.12;71.87;96821.47;10452454;28;20219;-67
2023/04/19 10:28:56;;;;;;;6.70;3.90;;;;;;;9.14;69.08;96772.13;10450307;28;20657;-66
2023/04/19 10:33:57;;;;;;;6.67;3.77;;;;;;;8.87;67.85;96735.41;10452172;28;20211;-66
2023/04/19 10:38:58;;;;;;;9.07;3.87;;;;;;;8.32;69.53;96774.47;10449414;28;20235;-67
2023/04/19 10:43:58;;;;;;;5.23;3.60;;;;;;;8.57;71.21;96800.00;10450831;28;20298;-67
2023/04/19 10:49:00;;;;;;;11.60;5.00;;;;;;;8.83;70.20;96770.63;10451329;28;20330;-67
2023/04/19 10:54:26;;;;;;;7.33;3.63;;;;;;;8.50;68.60;96732.81;10451600;28;20199;-67
2023/04/19 10:59:29;;;;;;;7.93;3.93;;;;;;;8.06;69.70;96743.75;10450473;28;20259;-67
2023/04/19 11:04:30;;;;;;;5.27;3.57;;;;;;;7.79;71.41;96760.94;10451444;28;20714;-66
2023/04/19 11:09:38;;;;;;;8.53;5.50;;;;;;;8.28;70.04;96736.56;10451196;28;20264;-66
2023/04/19 11:14:39;;;;;;;6.10;3.80;;;;;;;8.04;70.56;96743.91;10450845;28;20231;-66
2023/04/19 11:20:00;;;;;;;6.57;4.00;;;;;;;8.57;70.17;96739.13;10450580;28;20302;-66
2023/04/19 11:25:32;;;;;;;7.20;3.20;;;;;;;8.82;68.09;96705.47;10450691;28;20207;-66
2023/04/19 11:30:33;;;;;;;9.60;3.20;;;;;;;9.98;66.79;96698.56;10437922;28;20299;-66
2023/04/19 11:35:33;;;;;;;5.40;3.03;;;;;;;11.02;62.62;96635.66;10449826;28;20318;-65
2023/04/19 11:40:35;;;;;;;5.85;3.38;;;;;;;10.27;63.37;96655.50;10450845;28;20298;-67
2023/04/19 11:45:37;;;;;;;8.60;3.17;;;;;;;10.11;64.27;96660.69;10450286;28;20220;-66
2023/04/19 11:50:41;;;;;;;6.33;3.33;;;;;;;9.86;61.81;96597.69;10450250;28;20195;-66
2023/04/19 11:55:43;;;;;;;6.47;2.95;;;;;;;10.70;60.34;96580.44;10450376;28;20208;-65
2023/04/19 12:00:45;;;;;;;8.05;3.70;;;;;;;11.56;58.99;96582.75;10449332;28;20220;-65
2023/04/19 12:05:56;;;;;;;6.90;3.13;;;;;;;11.26;57.29;96555.41;10457527;28;20223;-65
2023/04/19 12:10:57;;;;;;;7.18;3.35;;;;;;;9.52;61.23;96601.09;10458044;28;20257;-66
2023/04/19 12:15:58;;;;;;;10.77;3.10;;;;;;;8.86;65.13;96671.06;10456461;28;20706;-66
2023/04/19 12:20:59;;;;;;;5.03;3.40;;;;;;;8.68;66.22;96676.28;10457134;28;20223;-65
2023/04/19 12:26:04;;;;;;;5.87;3.50;;;;;;;8.73;65.92;96681.06;10457398;28;20638;-66
2023/04/19 12:31:04;;;;;;;11.33;3.37;;;;;;;8.77;66.32;96671.94;10456620;28;20188;-66
2023/04/19 12:36:05;;;;;;;8.07;3.90;;;;;;;8.48;66.31;96665.06;10455742;28;20223;-66
2023/04/19 12:41:05;;;;;;;7.70;3.10;;;;;;;8.37;68.03;96684.31;10454494;28;20216;-66
2023/04/19 12:46:06;;;;;;;9.40;4.03;;;;;;;7.98;69.00;96701.91;10453332;28;20286;-65
2023/04/19 12:51:06;;;;;;;5.77;3.27;;;;;;;8.43;68.74;96708.22;10453505;28;20287;-66
2023/04/19 12:56:06;;;;;;;10.47;3.17;;;;;;;8.88;67.56;96682.22;10453517;28;20268;-64
2023/04/19 13:01:07;;;;;;;3.70;3.27;;;;;;;8.68;65.10;96618.81;10455937;28;20269;-66
2023/04/19 13:06:07;;;;;;;5.63;3.47;;;;;;;9.26;64.39;96622.81;10453869;28;20212;-65
2023/04/19 13:11:08;;;;;;;9.07;3.30;;;;;;;8.19;66.09;96639.06;10453769;28;20554;-66
2023/04/19 13:16:08;;;;;;;5.60;3.60;;;;;;;8.10;67.98;96666.84;10454597;28;20270;-66
2023/04/19 13:21:08;;;;;;;5.70;3.60;;;;;;;8.23;68.62;96673.56;10454615;28;20212;-66
2023/04/19 13:26:09;;;;;;;4.83;3.40;;;;;;;7.80;69.78;96686.16;10454618;28;20219;-67
2023/04/19 13:31:09;;;;;;;5.77;3.40;;;;;;;7.77;70.78;96696.84;10453308;28;20191;-66
2023/04/19 13:36:10;;;;;;;6.37;4.40;;;;;;;7.97;69.77;96674.16;10451431;28;20215;-67
2023/04/19 13:41:10;;;;;;;4.70;3.67;;;;;;;7.81;68.88;96654.72;10449861;28;20220;-67
2023/04/19 13:46:11;;;;;;;7.73;3.43;;;;;;;8.06;70.35;96668.09;10452732;28;20228;-67
2023/04/19 13:51:11;;;;;;;6.60;3.57;;;;;;;8.13;69.10;96635.25;10453570;28;20199;-66
2023/04/19 13:56:11;;;;;;;5.10;3.50;;;;;;;10.26;65.41;96600.69;10453498;28;20298;-66
2023/04/19 14:01:12;;;;;;;5.25;3.80;;;;;;;12.04;60.59;96544.28;10453045;28;20236;-65
2023/04/19 14:06:12;;;;;;;7.15;3.40;;;;;;;11.51;60.48;96532.59;10444329;28;20227;-66
2023/04/19 14:11:12;;;;;;;4.47;3.45;;;;;;;9.61;62.52;96529.56;10448737;28;20234;-66
2023/04/19 14:16:13;;;;;;;5.53;3.53;;;;;;;9.80;64.29;96577.38;10444199;28;20660;-67
2023/04/19 14:21:14;;;;;;;7.43;3.50;;;;;;;9.38;66.80;96593.81;10452969;28;20661;-66
2023/04/19 14:26:14;;;;;;;5.30;3.60;;;;;;;8.85;68.44;96645.09;10478446;28;20305;-67
2023/04/19 14:31:14;;;;;;;5.67;3.87;;;;;;;5.78;87.57;96784.94;10475682;28;20212;-67
2023/04/19 14:36:15;;;;;;;7.13;4.23;;;;;;;5.53;98.10;96747.97;10451091;28;20234;-67
2023/04/19 14:41:15;;;;;;;5.47;4.23;;;;;;;5.63;100.00;96752.41;10451138;28;20224;-67
2023/04/19 14:46:15;;;;;;;10.17;6.50;;;;;;;5.64;100.00;96770.47;10451976;28;20212;-67
2023/04/19 14:51:16;;;;;;;9.03;4.73;;;;;;;5.20;100.00;96793.03;10451374;28;20247;-66
2023/04/19 14:56:16;;;;;;;8.83;5.37;;;;;;;4.58;100.00;96802.13;10451325;28;20224;-67
2023/04/19 15:01:16;;;;;;;8.17;4.97;;;;;;;4.27;100.00;96810.50;10451097;28;20561;-66
2023/04/19 15:06:17;;;;;;;7.17;5.30;;;;;;;4.13;100.00;96804.69;10451778;28;20265;-67
2023/04/19 15:11:17;;;;;;;12.47;7.70;;;;;;;4.22;100.00;96812.59;10451288;28;20192;-67
2023/04/19 15:16:17;;;;;;;11.90;6.50;;;;;;;4.07;100.00;96808.53;10447741;28;20323;-66
2023/04/19 15:21:19;;;;;;;10.10;6.20;;;;;;;4.09;100.00;96812.69;10451089;28;20600;-67
2023/04/19 15:26:20;;;;;;;18.07;8.80;;;;;;;4.40;100.00;96812.97;10451025;28;20545;-67
2023/04/19 15:31:20;;;;;;;12.33;7.27;;;;;;;4.34;100.00;96804.84;10451119;28;20192;-67
2023/04/19 15:36:21;;;;;;;9.07;5.30;;;;;;;4.38;100.00;96811.44;10454071;28;20695;-66
2023/04/19 15:41:21;;;;;;;8.13;6.30;;;;;;;4.42;100.00;96805.09;10459264;28;20584;-67
2023/04/19 15:46:22;;;;;;;8.03;5.23;;;;;;;4.31;100.00;96805.06;10457824;28;20705;-66
2023/04/19 15:51:22;;;;;;;8.57;5.90;;;;;;;4.14;100.00;96814.94;10458992;28;20194;-66
2023/04/19 15:56:22;;;;;;;8.50;6.23;;;;;;;3.68;100.00;96823.50;10458164;28;20246;-66
2023/04/19 16:01:23;;;;;;;8.87;6.87;;;;;;;3.43;100.00;96834.75;10458470;28;20223;-66
2023/04/19 16:06:23;;;;;;;8.73;7.03;;;;;;;3.27;100.00;96827.28;10456987;28;20215;-68
2023/04/19 16:11:24;;;;;;;11.20;7.30;;;;;;;3.11;100.00;96830.94;10458693;28;20203;-67
2023/04/19 16:16:25;;;;;;;8.30;6.50;;;;;;;3.22;100.00;96833.59;10477048;22;20247;-64
2023/04/19 16:21:27;;;;;;;8.57;5.80;;;;;;;3.40;100.00;96828.06;10454717;28;20750;-65
2023/04/19 16:26:28;;;;;;;8.20;6.20;;;;;;;3.67;100.00;96816.66;10457318;28;20238;-63
2023/04/19 16:31:28;;;;;;;8.10;5.90;;;;;;;3.81;100.00;96815.66;10456982;28;20190;-65
2023/04/19 16:36:28;;;;;;;12.67;7.60;;;;;;;3.86;100.00;96804.00;10457042;28;20322;-64
2023/04/19 16:41:29;;;;;;;8.30;6.67;;;;;;;3.84;100.00;96807.66;10457131;28;20220;-65
2023/04/19 16:46:29;;;;;;;9.63;7.50;;;;;;;3.88;100.00;96809.91;10455811;28;20219;-63
2023/04/19 16:51:29;;;;;;;10.40;7.60;;;;;;;3.63;100.00;96797.91;10455163;28;20195;-64
2023/04/19 16:56:30;;;;;;;9.07;7.30;;;;;;;3.70;100.00;96795.69;10453920;28;20210;-65
2023/04/19 17:01:30;;;;;;;8.93;7.67;;;;;;;3.68;100.00;96788.03;10456335;28;20224;-64
2023/04/19 17:06:32;;;;;;;12.20;8.13;;;;;;;3.68;100.00;96787.22;10456516;28;20219;-65
2023/04/19 17:11:32;;;;;;;11.13;9.03;;;;;;;3.53;100.00;96784.78;10456542;28;20245;-64
2023/04/19 17:16:33;;;;;;;12.93;8.53;;;;;;;3.51;100.00;96781.50;10456282;28;20293;-65
2023/04/19 17:21:33;;;;;;;13.33;10.37;;;;;;;3.54;100.00;96783.84;10455996;28;20363;-65
2023/04/19 17:26:34;;;;;;;12.93;9.27;;;;;;;3.53;100.00;96781.38;10455279;28;20208;-65
2023/04/19 17:31:34;;;;;;;10.37;8.00;;;;;;;3.60;100.00;96779.16;10452187;28;20187;-64
2023/04/19 17:36:34;;;;;;;16.67;11.80;;;;;;;3.58;100.00;96779.28;10452206;28;20219;-65
2023/04/19 17:41:35;;;;;;;13.50;8.70;;;;;;;3.39;100.00;96772.03;10452399;28;20310;-65
2023/04/19 17:46:35;;;;;;;12.63;8.57;;;;;;;3.38;100.00;96781.56;10454530;28;20590;-64
2023/04/19 17:51:35;;;;;;;12.20;8.90;;;;;;;3.41;100.00;96787.44;10454403;28;20557;-66
2023/04/19 17:56:36;;;;;;;8.57;7.43;;;;;;;3.29;100.00;96791.72;10453056;28;20639;-66
2023/04/19 18:01:36;;;;;;;13.73;9.23;;;;;;;3.19;100.00;96794.16;10450821;28;20708;-66
2023/04/19 18:06:37;;;;;;;13.23;8.57;;;;;;;3.12;100.00;96792.94;10451038;28;20693;-67
2023/04/19 18:11:38;;;;;;;11.80;8.53;;;;;;;3.08;100.00;96804.41;10452445;28;20210;-65
2023/04/19 18:16:38;;;;;;;14.37;9.73;;;;;;;3.00;100.00;96797.19;10454546;28;20239;-66
2023/04/19 18:21:38;;;;;;;13.07;9.27;;;;;;;3.03;100.00;96800.41;10457156;28;20239;-64
2023/04/19 18:26:40;;;;;;;14.00;10.50;;;;;;;2.98;100.00;96802.47;10453994;28;20215;-65
2023/04/19 18:31:40;;;;;;;17.73;10.50;;;;;;;3.04;100.00;96796.88;10452828;28;20195;-66
2023/04/19 18:36:40;;;;;;;14.77;10.07;;;;;;;3.08;100.00;96796.66;10447378;28;20223;-66
2023/04/19 18:41:41;;;;;;;15.40;10.83;;;;;;;3.04;100.00;96790.88;10456297;28;20247;-64
2023/04/19 18:46:41;;;;;;;15.03;10.57;;;;;;;3.10;100.00;96803.38;10445753;28;20289;-62
2023/04/19 18:51:42;;;;;;;12.67;10.43;;;;;;;3.14;100.00;96810.00;10444372;28;20259;-65
2023/04/19 18:56:42;;;;;;;15.47;9.30;;;;;;;3.20;100.00;96798.38;10452700;28;20577;-64
2023/04/19 19:01:44;;;;;;;13.03;9.13;;;;;;;3.10;100.00;96798.22;10455725;28;20599;-65
2023/04/19 19:06:47;;;;;;;14.77;10.03;;;;;;;3.07;100.00;96798.44;10459124;28;20208;-66
2023/04/19 19:11:48;;;;;;;13.87;8.97;;;;;;;2.99;100.00;96800.72;10451819;28;20204;-65
2023/04/19 19:16:48;;;;;;;12.23;8.77;;;;;;;2.79;100.00;96800.34;10453826;28;20227;-64
2023/04/19 19:21:48;;;;;;;12.23;8.73;;;;;;;2.61;100.00;96801.63;10450910;28;20231;-64
2023/04/19 19:26:49;;;;;;;12.03;8.40;;;;;;;2.54;100.00;96815.88;10457267;28;20306;-65
2023/04/19 19:31:49;;;;;;;11.77;7.97;;;;;;;2.44;100.00;96815.69;10447171;28;20275;-65
2023/04/19 19:36:50;;;;;;;12.07;8.43;;;;;;;2.25;100.00;96814.34;10450204;28;20216;-65
2023/04/19 19:41:50;;;;;;;12.50;8.20;;;;;;;2.23;100.00;96812.78;10463325;28;20215;-65
2023/04/19 19:46:50;;;;;;;9.10;7.27;;;;;;;2.11;100.00;96812.69;10449703;28;20212;-65
2023/04/19 19:51:51;;;;;;;10.60;8.50;;;;;;;2.11;100.00;96820.44;10449918;28;20187;-64
2023/04/19 19:56:51;;;;;;;12.40;7.93;;;;;;;1.98;100.00;96823.94;10451078;28;20239;-66
2023/04/19 20:01:51;;;;;;;10.70;7.63;;;;;;;1.87;100.00;96815.13;10455331;28;20222;-66
2023/04/19 20:06:52;;;;;;;10.27;7.50;;;;;;;1.89;100.00;96821.00;10448909;28;20212;-65
2023/04/19 20:11:52;;;;;;;8.03;5.80;;;;;;;1.76;100.00;96818.38;10453347;28;20381;-66
2023/04/19 20:16:53;;;;;;;9.23;6.00;;;;;;;1.56;100.00;96824.84;10461844;28;20227;-65
2023/04/19 20:21:53;;;;;;;9.50;6.13;;;;;;;1.33;100.00;96817.72;10492793;28;20298;-67
2023/04/19 20:26:53;;;;;;;8.30;6.53;;;;;;;1.32;100.00;96811.72;10464772;28;20215;-65
2023/04/19 20:31:54;;;;;;;12.33;8.90;;;;;;;0.95;100.00;96808.88;10496012;28;20213;-65
2023/04/19 20:36:54;;;;;;;15.60;11.80;;;;;;;0.27;100.00;96809.50;10495674;28;20214;-66
2023/04/19 20:41:55;;;;;;;13.17;9.43;;;;;;;0.07;100.00;96813.25;10495415;28;20238;-65
2023/04/19 20:46:55;;;;;;;9.13;7.20;;;;;;;0.17;100.00;96812.63;10495595;28;20301;-66
2023/04/19 20:51:56;;;;;;;12.13;8.40;;;;;;;0.28;100.00;96818.91;10458501;28;20191;-65
2023/04/19 20:57:00;;;;;;;8.10;6.33;;;;;;;0.48;100.00;96823.69;10453320;28;20768;-65
2023/04/19 21:02:04;;;;;;;8.30;6.40;;;;;;;0.35;100.00;96815.03;10453016;28;20254;-63
2023/04/19 21:07:04;;;;;;;8.40;6.07;;;;;;;0.16;100.00;96810.13;10493537;28;20708;-63
2023/04/19 21:12:04;;;;;;;7.97;6.40;;;;;;;0.09;100.00;96808.84;10494374;28;20191;-64
2023/04/19 21:17:05;;;;;;;9.07;6.63;;;;;;;0.09;100.00;96809.69;10494179;28;20246;-64
2023/04/19 21:22:05;;;;;;;8.40;6.33;;;;;;;0.16;100.00;96805.00;10494454;28;20719;-65
2023/04/19 21:27:05;;;;;;;8.67;6.63;;;;;;;0.26;100.00;96807.84;10493976;28;20230;-64
2023/04/19 21:32:06;;;;;;;12.23;7.53;;;;;;;0.39;100.00;96810.53;10493953;28;20184;-65
2023/04/19 21:37:06;;;;;;;11.77;7.63;;;;;;;0.30;100.00;96801.59;10493701;28;20933;-65
2023/04/19 21:42:06;;;;;;;10.87;6.73;;;;;;;0.25;100.00;96808.78;10493499;28;20227;-63
2023/04/19 21:47:07;;;;;;;11.80;7.63;;;;;;;0.29;100.00;96810.25;10492916;28;20248;-61
2023/04/19 21:52:08;;;;;;;11.33;8.17;;;;;;;0.23;100.00;96816.59;10455407;28;20196;-65
2023/04/19 21:57:09;;;;;;;10.23;7.10;;;;;;;0.43;100.00;96818.00;10451794;28;20693;-65
2023/04/19 22:02:10;;;;;;;10.93;8.47;;;;;;;0.34;100.00;96816.78;10451095;28;20310;-65
2023/04/19 22:07:11;;;;;;;12.07;8.80;;;;;;;0.42;100.00;96823.25;10487511;28;20761;-64
2023/04/19 22:12:12;;;;;;;9.80;7.77;;;;;;;0.45;100.00;96823.06;10492072;28;20197;-63
2023/04/19 22:17:13;;;;;;;10.87;8.10;;;;;;;0.52;100.00;96825.19;10492118;28;20644;-63
2023/04/19 22:22:13;;;;;;;10.27;7.20;;;;;;;0.48;100.00;96820.31;10492029;28;20321;-63
2023/04/19 22:27:14;;;;;;;9.13;7.30;;;;;;;0.44;100.00;96817.06;10491944;28;20206;-63
2023/04/19 22:32:14;;;;;;;10.80;8.00;;;;;;;0.38;100.00;96814.03;10491600;28;20892;-65
2023/04/19 22:37:14;;;;;;;8.67;6.57;;;;;;;0.45;100.00;96812.75;10491605;28;20218;-64
2023/04/19 22:42:15;;;;;;;10.17;7.03;;;;;;;0.46;100.00;96806.66;10491412;28;20317;-64
2023/04/19 22:47:15;;;;;;;8.33;6.70;;;;;;;0.52;100.00;96814.03;10490670;28;20214;-64
2023/04/19 22:52:16;;;;;;;10.77;6.40;;;;;;;0.62;100.00;96819.47;10491149;28;20597;-64
2023/04/19 22:57:16;;;;;;;8.50;6.67;;;;;;;0.63;100.00;96811.66;10458771;28;20222;-64
2023/04/19 23:02:16;;;;;;;7.90;6.00;;;;;;;0.67;100.00;96825.16;10449562;28;20237;-65
2023/04/19 23:07:18;;;;;;;8.80;6.50;;;;;;;0.74;100.00;96817.91;10449259;28;20239;-65
2023/04/19 23:12:19;;;;;;;8.30;5.87;;;;;;;0.73;100.00;96808.50;10448964;28;20281;-63